sensor_id;sensor_type;location;lat;lon;timestamp;P1;durP1;ratioP1;P2;durP2;ratioP2
43419;SDS011;29017;51.514;-0.178;2023-06-14T00:01:45;2.70;;;0.70;;
43419;SDS011;29017;51.514;-0.178;2023-06-14T00:04:12;3.38;;;0.63;;
43419;SDS011;29017;51.514;-0.178;2023-06-14T00:06:40;4.50;;;0.80;;
43419;SDS011;29017;51.514;-0.178;2023-06-14T00:09:08;3.70;;;0.80;;
43419;SDS011;29017;51.514;-0.178;2023-06-14T00:11:36;3.38;;;0.70;;
43419;SDS011;29017;51.514;-0.178;2023-06-14T00:14:06;2.28;;;0.80;;
43419;SDS011;29017;51.514;-0.178;2023-06-14T00:16:34;2.78;;;0.80;;
43419;SDS011;29017;51.514;-0.178;2023-06-14T00:19:01;3.88;;;0.80;;
43419;SDS011;29017;51.514;-0.178;2023-06-14T00:21:31;4.07;;;1.00;;
43419;SDS011;29017;51.514;-0.178;2023-06-14T00:23:58;4.75;;;1.00;;
43419;SDS011;29017;51.514;-0.178;2023-06-14T00:26:26;2.88;;;1.02;;
43419;SDS011;29017;51.514;-0.178;2023-06-14T00:28:53;10.32;;;1.05;;
43419;SDS011;29017;51.514;-0.178;2023-06-14T00:31:21;2.50;;;0.80;;
43419;SDS011;29017;51.514;-0.178;2023-06-14T00:33:48;4.07;;;0.93;;
43419;SDS011;29017;51.514;-0.178;2023-06-14T00:36:15;5.45;;;0.98;;
43419;SDS011;29017;51.514;-0.178;2023-06-14T00:38:42;4.05;;;0.60;;
43419;SDS011;29017;51.514;-0.178;2023-06-14T00:41:09;2.13;;;0.70;;
43419;SDS011;29017;51.514;-0.178;2023-06-14T00:43:36;2.95;;;0.70;;
43419;SDS011;29017;51.514;-0.178;2023-06-14T00:46:03;2.40;;;0.80;;
43419;SDS011;29017;51.514;-0.178;2023-06-14T00:48:30;5.15;;;0.70;;
43419;SDS011;29017;51.514;-0.178;2023-06-14T00:50:58;6.13;;;1.05;;
43419;SDS011;29017;51.514;-0.178;2023-06-14T00:53:31;5.28;;;1.02;;
43419;SDS011;29017;51.514;-0.178;2023-06-14T00:56:00;4.13;;;0.70;;
43419;SDS011;29017;51.514;-0.178;2023-06-14T00:58:28;3.33;;;0.93;;
43419;SDS011;29017;51.514;-0.178;2023-06-14T01:00:55;3.60;;;0.70;;
43419;SDS011;29017;51.514;-0.178;2023-06-14T01:03:22;2.85;;;0.60;;
43419;SDS011;29017;51.514;-0.178;2023-06-14T01:05:53;3.92;;;0.80;;
43419;SDS011;29017;51.514;-0.178;2023-06-14T01:08:33;4.53;;;0.80;;
43419;SDS011;29017;51.514;-0.178;2023-06-14T01:11:16;4.32;;;0.80;;
43419;SDS011;29017;51.514;-0.178;2023-06-14T01:13:49;2.25;;;0.60;;
43419;SDS011;29017;51.514;-0.178;2023-06-14T01:16:18;3.08;;;0.60;;
43419;SDS011;29017;51.514;-0.178;2023-06-14T01:18:46;4.47;;;0.70;;
43419;SDS011;29017;51.514;-0.178;2023-06-14T01:21:24;6.15;;;0.85;;
43419;SDS011;29017;51.514;-0.178;2023-06-14T01:23:52;6.15;;;0.93;;
43419;SDS011;29017;51.514;-0.178;2023-06-14T01:26:22;4.10;;;0.80;;
43419;SDS011;29017;51.514;-0.178;2023-06-14T01:28:50;4.38;;;0.60;;
43419;SDS011;29017;51.514;-0.178;2023-06-14T01:31:19;5.80;;;0.70;;
43419;SDS011;29017;51.514;-0.178;2023-06-14T01:33:51;4.00;;;1.10;;
43419;SDS011;29017;51.514;-0.178;2023-06-14T01:36:19;4.68;;;0.77;;
43419;SDS011;29017;51.514;-0.178;2023-06-14T01:38:47;4.97;;;1.17;;
43419;SDS011;29017;51.514;-0.178;2023-06-14T01:41:17;4.95;;;1.00;;
43419;SDS011;29017;51.514;-0.178;2023-06-14T01:43:46;4.53;;;0.80;;
43419;SDS011;29017;51.514;-0.178;2023-06-14T01:46:15;2.90;;;0.95;;
43419;SDS011;29017;51.514;-0.178;2023-06-14T01:48:42;3.55;;;0.93;;
43419;SDS011;29017;51.514;-0.178;2023-06-14T01:51:10;6.80;;;1.10;;
43419;SDS011;29017;51.514;-0.178;2023-06-14T01:53:37;5.15;;;1.40;;
43419;SDS011;29017;51.514;-0.178;2023-06-14T01:56:04;8.77;;;1.90;;
43419;SDS011;29017;51.514;-0.178;2023-06-14T01:58:31;6.03;;;1.17;;
43419;SDS011;29017;51.514;-0.178;2023-06-14T02:00:59;6.28;;;1.85;;
43419;SDS011;29017;51.514;-0.178;2023-06-14T02:03:27;5.32;;;1.30;;
43419;SDS011;29017;51.514;-0.178;2023-06-14T02:05:54;7.43;;;1.20;;
43419;SDS011;29017;51.514;-0.178;2023-06-14T02:08:22;5.38;;;1.20;;
43419;SDS011;29017;51.514;-0.178;2023-06-14T02:10:50;5.22;;;0.90;;
43419;SDS011;29017;51.514;-0.178;2023-06-14T02:13:17;5.15;;;0.80;;
43419;SDS011;29017;51.514;-0.178;2023-06-14T02:15:44;5.13;;;1.15;;
43419;SDS011;29017;51.514;-0.178;2023-06-14T02:18:12;7.50;;;1.10;;
43419;SDS011;29017;51.514;-0.178;2023-06-14T02:20:39;6.18;;;0.82;;
43419;SDS011;29017;51.514;-0.178;2023-06-14T02:23:06;4.72;;;1.02;;
43419;SDS011;29017;51.514;-0.178;2023-06-14T02:25:35;6.03;;;1.05;;
43419;SDS011;29017;51.514;-0.178;2023-06-14T02:28:02;3.83;;;0.90;;
43419;SDS011;29017;51.514;-0.178;2023-06-14T02:30:29;4.78;;;1.13;;
43419;SDS011;29017;51.514;-0.178;2023-06-14T02:32:57;5.65;;;1.02;;
43419;SDS011;29017;51.514;-0.178;2023-06-14T02:35:25;4.15;;;0.95;;
43419;SDS011;29017;51.514;-0.178;2023-06-14T02:37:53;4.15;;;1.10;;
43419;SDS011;29017;51.514;-0.178;2023-06-14T02:40:20;5.15;;;1.00;;
43419;SDS011;29017;51.514;-0.178;2023-06-14T02:42:47;6.95;;;1.23;;
43419;SDS011;29017;51.514;-0.178;2023-06-14T02:45:14;5.28;;;1.50;;
43419;SDS011;29017;51.514;-0.178;2023-06-14T02:47:41;4.28;;;1.00;;
43419;SDS011;29017;51.514;-0.178;2023-06-14T02:50:08;4.70;;;1.20;;
43419;SDS011;29017;51.514;-0.178;2023-06-14T02:52:36;7.55;;;1.30;;
43419;SDS011;29017;51.514;-0.178;2023-06-14T02:55:03;12.82;;;1.88;;
43419;SDS011;29017;51.514;-0.178;2023-06-14T02:57:31;8.02;;;1.00;;
43419;SDS011;29017;51.514;-0.178;2023-06-14T02:59:58;6.45;;;1.10;;
43419;SDS011;29017;51.514;-0.178;2023-06-14T03:02:25;10.13;;;1.67;;
43419;SDS011;29017;51.514;-0.178;2023-06-14T03:04:52;4.15;;;1.77;;
43419;SDS011;29017;51.514;-0.178;2023-06-14T03:07:19;9.35;;;1.50;;
43419;SDS011;29017;51.514;-0.178;2023-06-14T03:09:48;4.95;;;1.40;;
43419;SDS011;29017;51.514;-0.178;2023-06-14T03:12:16;8.70;;;1.63;;
43419;SDS011;29017;51.514;-0.178;2023-06-14T03:14:43;5.07;;;1.13;;
43419;SDS011;29017;51.514;-0.178;2023-06-14T03:17:13;11.13;;;1.98;;
43419;SDS011;29017;51.514;-0.178;2023-06-14T03:19:40;4.60;;;1.27;;
43419;SDS011;29017;51.514;-0.178;2023-06-14T03:22:07;5.68;;;1.70;;
43419;SDS011;29017;51.514;-0.178;2023-06-14T03:24:34;6.10;;;1.52;;
43419;SDS011;29017;51.514;-0.178;2023-06-14T03:27:03;6.95;;;1.65;;
43419;SDS011;29017;51.514;-0.178;2023-06-14T03:29:30;7.20;;;1.75;;
43419;SDS011;29017;51.514;-0.178;2023-06-14T03:32:00;10.50;;;1.92;;
43419;SDS011;29017;51.514;-0.178;2023-06-14T03:34:29;8.80;;;1.98;;
43419;SDS011;29017;51.514;-0.178;2023-06-14T03:36:56;7.72;;;2.00;;
43419;SDS011;29017;51.514;-0.178;2023-06-14T03:39:23;8.02;;;1.42;;
43419;SDS011;29017;51.514;-0.178;2023-06-14T03:41:51;10.88;;;2.00;;
43419;SDS011;29017;51.514;-0.178;2023-06-14T03:44:18;7.80;;;1.38;;
43419;SDS011;29017;51.514;-0.178;2023-06-14T03:46:45;11.52;;;1.98;;
43419;SDS011;29017;51.514;-0.178;2023-06-14T03:49:15;7.72;;;1.85;;
43419;SDS011;29017;51.514;-0.178;2023-06-14T03:51:43;9.93;;;1.80;;
43419;SDS011;29017;51.514;-0.178;2023-06-14T03:54:11;7.18;;;1.50;;
43419;SDS011;29017;51.514;-0.178;2023-06-14T03:56:58;7.85;;;1.92;;
43419;SDS011;29017;51.514;-0.178;2023-06-14T03:59:26;5.03;;;1.50;;
43419;SDS011;29017;51.514;-0.178;2023-06-14T04:01:53;8.77;;;1.77;;
43419;SDS011;29017;51.514;-0.178;2023-06-14T04:04:21;8.38;;;1.67;;
43419;SDS011;29017;51.514;-0.178;2023-06-14T04:06:56;8.38;;;1.48;;
43419;SDS011;29017;51.514;-0.178;2023-06-14T04:09:24;8.85;;;1.80;;
43419;SDS011;29017;51.514;-0.178;2023-06-14T04:11:52;8.90;;;1.60;;
43419;SDS011;29017;51.514;-0.178;2023-06-14T04:14:19;7.45;;;1.63;;
43419;SDS011;29017;51.514;-0.178;2023-06-14T04:16:47;8.30;;;1.60;;
43419;SDS011;29017;51.514;-0.178;2023-06-14T04:19:15;4.93;;;1.42;;
43419;SDS011;29017;51.514;-0.178;2023-06-14T04:21:43;8.00;;;1.67;;
43419;SDS011;29017;51.514;-0.178;2023-06-14T04:24:09;5.95;;;1.88;;
43419;SDS011;29017;51.514;-0.178;2023-06-14T04:26:43;6.88;;;1.70;;
43419;SDS011;29017;51.514;-0.178;2023-06-14T04:29:11;4.80;;;1.20;;
43419;SDS011;29017;51.514;-0.178;2023-06-14T04:31:43;6.75;;;2.00;;
43419;SDS011;29017;51.514;-0.178;2023-06-14T04:34:11;6.72;;;1.88;;
43419;SDS011;29017;51.514;-0.178;2023-06-14T04:36:43;6.65;;;1.60;;
43419;SDS011;29017;51.514;-0.178;2023-06-14T04:39:16;4.32;;;1.67;;
43419;SDS011;29017;51.514;-0.178;2023-06-14T04:41:46;7.53;;;1.75;;
43419;SDS011;29017;51.514;-0.178;2023-06-14T04:44:13;5.80;;;1.67;;
43419;SDS011;29017;51.514;-0.178;2023-06-14T04:46:43;8.80;;;1.88;;
43419;SDS011;29017;51.514;-0.178;2023-06-14T04:49:16;10.35;;;2.05;;
43419;SDS011;29017;51.514;-0.178;2023-06-14T04:51:44;5.35;;;2.40;;
43419;SDS011;29017;51.514;-0.178;2023-06-14T04:54:12;7.55;;;1.75;;
43419;SDS011;29017;51.514;-0.178;2023-06-14T04:56:43;6.00;;;1.80;;
43419;SDS011;29017;51.514;-0.178;2023-06-14T04:59:10;8.55;;;1.60;;
43419;SDS011;29017;51.514;-0.178;2023-06-14T05:01:43;7.90;;;2.03;;
43419;SDS011;29017;51.514;-0.178;2023-06-14T05:04:19;7.60;;;1.58;;
43419;SDS011;29017;51.514;-0.178;2023-06-14T05:06:48;10.57;;;1.80;;
43419;SDS011;29017;51.514;-0.178;2023-06-14T05:09:15;9.18;;;2.25;;
43419;SDS011;29017;51.514;-0.178;2023-06-14T05:11:43;8.60;;;1.70;;
43419;SDS011;29017;51.514;-0.178;2023-06-14T05:14:10;22.65;;;4.28;;
43419;SDS011;29017;51.514;-0.178;2023-06-14T05:16:38;11.95;;;2.13;;
43419;SDS011;29017;51.514;-0.178;2023-06-14T05:19:06;11.65;;;2.50;;
43419;SDS011;29017;51.514;-0.178;2023-06-14T05:21:34;7.65;;;2.25;;
43419;SDS011;29017;51.514;-0.178;2023-06-14T05:24:08;6.70;;;1.95;;
43419;SDS011;29017;51.514;-0.178;2023-06-14T05:26:36;7.13;;;1.63;;
43419;SDS011;29017;51.514;-0.178;2023-06-14T05:29:03;7.40;;;1.77;;
43419;SDS011;29017;51.514;-0.178;2023-06-14T05:31:30;8.40;;;1.85;;
43419;SDS011;29017;51.514;-0.178;2023-06-14T05:33:57;6.13;;;1.45;;
43419;SDS011;29017;51.514;-0.178;2023-06-14T05:36:25;8.98;;;1.80;;
43419;SDS011;29017;51.514;-0.178;2023-06-14T05:38:54;9.50;;;1.70;;
43419;SDS011;29017;51.514;-0.178;2023-06-14T05:41:24;11.20;;;1.88;;
43419;SDS011;29017;51.514;-0.178;2023-06-14T05:43:55;8.82;;;1.95;;
43419;SDS011;29017;51.514;-0.178;2023-06-14T05:46:23;9.98;;;1.85;;
43419;SDS011;29017;51.514;-0.178;2023-06-14T05:48:53;12.20;;;2.28;;
43419;SDS011;29017;51.514;-0.178;2023-06-14T05:51:22;10.35;;;2.08;;
43419;SDS011;29017;51.514;-0.178;2023-06-14T05:53:52;10.18;;;2.05;;
43419;SDS011;29017;51.514;-0.178;2023-06-14T05:56:19;10.38;;;2.50;;
43419;SDS011;29017;51.514;-0.178;2023-06-14T05:58:46;8.15;;;1.75;;
43419;SDS011;29017;51.514;-0.178;2023-06-14T06:01:14;12.38;;;2.58;;
43419;SDS011;29017;51.514;-0.178;2023-06-14T06:03:42;10.73;;;2.40;;
43419;SDS011;29017;51.514;-0.178;2023-06-14T06:06:13;9.10;;;2.10;;
43419;SDS011;29017;51.514;-0.178;2023-06-14T06:08:40;12.10;;;2.08;;
43419;SDS011;29017;51.514;-0.178;2023-06-14T06:11:07;8.45;;;2.05;;
43419;SDS011;29017;51.514;-0.178;2023-06-14T06:13:35;6.60;;;2.22;;
43419;SDS011;29017;51.514;-0.178;2023-06-14T06:16:02;10.52;;;2.28;;
43419;SDS011;29017;51.514;-0.178;2023-06-14T06:18:30;8.32;;;2.13;;
43419;SDS011;29017;51.514;-0.178;2023-06-14T06:20:57;6.93;;;2.00;;
43419;SDS011;29017;51.514;-0.178;2023-06-14T06:23:24;8.45;;;2.45;;
43419;SDS011;29017;51.514;-0.178;2023-06-14T06:25:51;14.57;;;3.13;;
43419;SDS011;29017;51.514;-0.178;2023-06-14T06:28:18;24.33;;;4.20;;
43419;SDS011;29017;51.514;-0.178;2023-06-14T06:30:45;12.98;;;2.88;;
43419;SDS011;29017;51.514;-0.178;2023-06-14T06:33:12;14.82;;;2.88;;
43419;SDS011;29017;51.514;-0.178;2023-06-14T06:35:40;7.30;;;2.33;;
43419;SDS011;29017;51.514;-0.178;2023-06-14T06:38:08;6.60;;;2.50;;
43419;SDS011;29017;51.514;-0.178;2023-06-14T06:40:36;9.73;;;2.30;;
43419;SDS011;29017;51.514;-0.178;2023-06-14T06:43:03;9.63;;;2.75;;
43419;SDS011;29017;51.514;-0.178;2023-06-14T06:45:34;17.52;;;2.20;;
43419;SDS011;29017;51.514;-0.178;2023-06-14T06:48:01;11.23;;;2.55;;
43419;SDS011;29017;51.514;-0.178;2023-06-14T06:50:29;11.40;;;2.50;;
43419;SDS011;29017;51.514;-0.178;2023-06-14T06:52:57;14.02;;;3.67;;
43419;SDS011;29017;51.514;-0.178;2023-06-14T06:55:24;7.82;;;2.67;;
43419;SDS011;29017;51.514;-0.178;2023-06-14T06:57:51;11.98;;;2.65;;
43419;SDS011;29017;51.514;-0.178;2023-06-14T07:00:19;9.15;;;2.50;;
43419;SDS011;29017;51.514;-0.178;2023-06-14T07:02:47;7.90;;;3.05;;
43419;SDS011;29017;51.514;-0.178;2023-06-14T07:05:15;12.90;;;3.00;;
43419;SDS011;29017;51.514;-0.178;2023-06-14T07:07:44;11.57;;;3.00;;
43419;SDS011;29017;51.514;-0.178;2023-06-14T07:10:11;13.05;;;2.85;;
43419;SDS011;29017;51.514;-0.178;2023-06-14T07:12:38;14.75;;;3.58;;
43419;SDS011;29017;51.514;-0.178;2023-06-14T07:15:06;13.88;;;3.50;;
43419;SDS011;29017;51.514;-0.178;2023-06-14T07:17:35;7.45;;;2.55;;
43419;SDS011;29017;51.514;-0.178;2023-06-14T07:20:02;7.60;;;2.40;;
43419;SDS011;29017;51.514;-0.178;2023-06-14T07:22:38;6.28;;;2.63;;
43419;SDS011;29017;51.514;-0.178;2023-06-14T07:25:10;9.48;;;2.60;;
43419;SDS011;29017;51.514;-0.178;2023-06-14T07:27:43;9.65;;;3.30;;
43419;SDS011;29017;51.514;-0.178;2023-06-14T07:30:12;8.57;;;2.75;;
43419;SDS011;29017;51.514;-0.178;2023-06-14T07:32:39;10.55;;;2.63;;
43419;SDS011;29017;51.514;-0.178;2023-06-14T07:35:07;12.13;;;3.03;;
43419;SDS011;29017;51.514;-0.178;2023-06-14T07:37:34;13.80;;;2.90;;
43419;SDS011;29017;51.514;-0.178;2023-06-14T07:40:01;9.45;;;2.17;;
43419;SDS011;29017;51.514;-0.178;2023-06-14T07:42:34;9.82;;;2.28;;
43419;SDS011;29017;51.514;-0.178;2023-06-14T07:45:05;9.68;;;2.30;;
43419;SDS011;29017;51.514;-0.178;2023-06-14T07:47:32;7.95;;;2.67;;
43419;SDS011;29017;51.514;-0.178;2023-06-14T07:50:00;10.05;;;2.65;;
43419;SDS011;29017;51.514;-0.178;2023-06-14T07:52:30;6.95;;;2.13;;
43419;SDS011;29017;51.514;-0.178;2023-06-14T07:54:58;13.13;;;3.10;;
43419;SDS011;29017;51.514;-0.178;2023-06-14T07:57:25;12.73;;;3.30;;
43419;SDS011;29017;51.514;-0.178;2023-06-14T07:59:52;10.00;;;2.70;;
43419;SDS011;29017;51.514;-0.178;2023-06-14T08:02:19;9.40;;;2.40;;
43419;SDS011;29017;51.514;-0.178;2023-06-14T08:04:47;9.98;;;2.58;;
43419;SDS011;29017;51.514;-0.178;2023-06-14T08:07:15;13.52;;;2.63;;
43419;SDS011;29017;51.514;-0.178;2023-06-14T08:09:42;16.45;;;2.90;;
43419;SDS011;29017;51.514;-0.178;2023-06-14T08:12:09;10.57;;;2.20;;
43419;SDS011;29017;51.514;-0.178;2023-06-14T08:14:36;13.18;;;2.85;;
43419;SDS011;29017;51.514;-0.178;2023-06-14T08:17:06;20.55;;;4.00;;
43419;SDS011;29017;51.514;-0.178;2023-06-14T08:19:33;8.48;;;3.20;;
43419;SDS011;29017;51.514;-0.178;2023-06-14T08:22:00;11.25;;;2.45;;
43419;SDS011;29017;51.514;-0.178;2023-06-14T08:24:27;9.88;;;2.35;;
43419;SDS011;29017;51.514;-0.178;2023-06-14T08:26:55;17.80;;;3.35;;
43419;SDS011;29017;51.514;-0.178;2023-06-14T08:29:22;15.55;;;2.88;;
43419;SDS011;29017;51.514;-0.178;2023-06-14T08:31:49;8.93;;;3.20;;
43419;SDS011;29017;51.514;-0.178;2023-06-14T08:34:16;10.73;;;3.22;;
43419;SDS011;29017;51.514;-0.178;2023-06-14T08:36:43;10.95;;;2.65;;
43419;SDS011;29017;51.514;-0.178;2023-06-14T08:39:11;10.40;;;2.17;;
43419;SDS011;29017;51.514;-0.178;2023-06-14T08:41:38;11.43;;;2.97;;
43419;SDS011;29017;51.514;-0.178;2023-06-14T08:44:05;5.53;;;2.70;;
43419;SDS011;29017;51.514;-0.178;2023-06-14T08:46:36;10.38;;;2.60;;
43419;SDS011;29017;51.514;-0.178;2023-06-14T08:49:04;11.43;;;2.28;;
43419;SDS011;29017;51.514;-0.178;2023-06-14T08:51:35;9.73;;;3.10;;
43419;SDS011;29017;51.514;-0.178;2023-06-14T08:54:03;9.65;;;3.38;;
43419;SDS011;29017;51.514;-0.178;2023-06-14T08:56:31;12.07;;;2.65;;
43419;SDS011;29017;51.514;-0.178;2023-06-14T08:59:00;8.50;;;2.80;;
43419;SDS011;29017;51.514;-0.178;2023-06-14T09:01:33;12.77;;;2.58;;
43419;SDS011;29017;51.514;-0.178;2023-06-14T09:04:01;14.88;;;3.03;;
43419;SDS011;29017;51.514;-0.178;2023-06-14T09:06:30;8.05;;;2.50;;
43419;SDS011;29017;51.514;-0.178;2023-06-14T09:08:57;9.80;;;2.25;;
43419;SDS011;29017;51.514;-0.178;2023-06-14T09:11:24;12.68;;;3.10;;
43419;SDS011;29017;51.514;-0.178;2023-06-14T09:13:53;19.75;;;3.05;;
43419;SDS011;29017;51.514;-0.178;2023-06-14T09:16:20;11.43;;;2.63;;
43419;SDS011;29017;51.514;-0.178;2023-06-14T09:18:47;10.10;;;2.78;;
43419;SDS011;29017;51.514;-0.178;2023-06-14T09:21:16;13.30;;;3.38;;
43419;SDS011;29017;51.514;-0.178;2023-06-14T09:23:44;11.00;;;2.85;;
43419;SDS011;29017;51.514;-0.178;2023-06-14T09:26:16;14.52;;;3.15;;
43419;SDS011;29017;51.514;-0.178;2023-06-14T09:28:46;7.00;;;2.40;;
43419;SDS011;29017;51.514;-0.178;2023-06-14T09:31:18;9.50;;;3.17;;
43419;SDS011;29017;51.514;-0.178;2023-06-14T09:33:47;12.00;;;2.83;;
43419;SDS011;29017;51.514;-0.178;2023-06-14T09:36:16;13.63;;;3.35;;
43419;SDS011;29017;51.514;-0.178;2023-06-14T09:38:51;7.85;;;1.95;;
43419;SDS011;29017;51.514;-0.178;2023-06-14T09:41:21;10.40;;;2.40;;
43419;SDS011;29017;51.514;-0.178;2023-06-14T09:44:05;12.90;;;2.70;;
43419;SDS011;29017;51.514;-0.178;2023-06-14T09:46:37;6.72;;;2.63;;
43419;SDS011;29017;51.514;-0.178;2023-06-14T09:49:05;9.27;;;2.40;;
43419;SDS011;29017;51.514;-0.178;2023-06-14T09:51:33;11.40;;;2.60;;
43419;SDS011;29017;51.514;-0.178;2023-06-14T09:54:07;6.55;;;2.60;;
43419;SDS011;29017;51.514;-0.178;2023-06-14T09:56:46;12.77;;;3.08;;
43419;SDS011;29017;51.514;-0.178;2023-06-14T09:59:16;6.95;;;2.53;;
43419;SDS011;29017;51.514;-0.178;2023-06-14T10:01:57;8.95;;;2.20;;
43419;SDS011;29017;51.514;-0.178;2023-06-14T10:04:27;7.22;;;2.90;;
43419;SDS011;29017;51.514;-0.178;2023-06-14T10:06:55;8.95;;;2.25;;
43419;SDS011;29017;51.514;-0.178;2023-06-14T10:09:23;5.20;;;2.30;;
43419;SDS011;29017;51.514;-0.178;2023-06-14T10:11:51;11.95;;;2.88;;
43419;SDS011;29017;51.514;-0.178;2023-06-14T10:14:18;10.43;;;2.55;;
43419;SDS011;29017;51.514;-0.178;2023-06-14T10:19:30;10.90;;;2.85;;
43419;SDS011;29017;51.514;-0.178;2023-06-14T10:24:44;11.38;;;2.50;;
43419;SDS011;29017;51.514;-0.178;2023-06-14T10:27:15;12.68;;;3.85;;
43419;SDS011;29017;51.514;-0.178;2023-06-14T10:32:21;9.02;;;1.98;;
43419;SDS011;29017;51.514;-0.178;2023-06-14T10:34:56;8.02;;;2.67;;
43419;SDS011;29017;51.514;-0.178;2023-06-14T10:37:28;8.95;;;2.83;;
43419;SDS011;29017;51.514;-0.178;2023-06-14T10:39:55;6.93;;;3.20;;
43419;SDS011;29017;51.514;-0.178;2023-06-14T10:42:23;7.65;;;2.40;;
43419;SDS011;29017;51.514;-0.178;2023-06-14T10:44:57;7.22;;;2.72;;
43419;SDS011;29017;51.514;-0.178;2023-06-14T10:47:32;8.13;;;2.63;;
43419;SDS011;29017;51.514;-0.178;2023-06-14T10:52:29;10.80;;;2.65;;
43419;SDS011;29017;51.514;-0.178;2023-06-14T10:55:04;9.40;;;3.30;;
43419;SDS011;29017;51.514;-0.178;2023-06-14T10:57:38;7.57;;;2.50;;
43419;SDS011;29017;51.514;-0.178;2023-06-14T11:00:20;9.57;;;2.58;;
43419;SDS011;29017;51.514;-0.178;2023-06-14T11:10:59;9.25;;;2.80;;
43419;SDS011;29017;51.514;-0.178;2023-06-14T11:13:27;6.68;;;2.72;;
43419;SDS011;29017;51.514;-0.178;2023-06-14T11:15:57;7.75;;;3.03;;
43419;SDS011;29017;51.514;-0.178;2023-06-14T11:18:28;5.72;;;2.85;;
43419;SDS011;29017;51.514;-0.178;2023-06-14T11:20:55;13.13;;;4.40;;
43419;SDS011;29017;51.514;-0.178;2023-06-14T11:23:22;8.82;;;2.90;;
43419;SDS011;29017;51.514;-0.178;2023-06-14T11:25:50;6.80;;;2.75;;
43419;SDS011;29017;51.514;-0.178;2023-06-14T11:28:18;9.60;;;3.10;;
43419;SDS011;29017;51.514;-0.178;2023-06-14T11:30:48;16.13;;;4.68;;
43419;SDS011;29017;51.514;-0.178;2023-06-14T11:33:18;10.10;;;4.55;;
43419;SDS011;29017;51.514;-0.178;2023-06-14T11:35:45;11.93;;;3.33;;
43419;SDS011;29017;51.514;-0.178;2023-06-14T11:38:12;7.32;;;2.90;;
43419;SDS011;29017;51.514;-0.178;2023-06-14T11:40:39;8.48;;;2.53;;
43419;SDS011;29017;51.514;-0.178;2023-06-14T11:43:06;5.18;;;2.60;;
43419;SDS011;29017;51.514;-0.178;2023-06-14T11:45:41;7.45;;;3.00;;
43419;SDS011;29017;51.514;-0.178;2023-06-14T11:48:36;9.10;;;3.30;;
43419;SDS011;29017;51.514;-0.178;2023-06-14T11:51:04;9.47;;;3.90;;
43419;SDS011;29017;51.514;-0.178;2023-06-14T11:53:31;10.40;;;3.38;;
43419;SDS011;29017;51.514;-0.178;2023-06-14T11:55:59;11.95;;;4.90;;
43419;SDS011;29017;51.514;-0.178;2023-06-14T11:58:28;8.88;;;3.20;;
43419;SDS011;29017;51.514;-0.178;2023-06-14T12:00:56;9.20;;;2.80;;
43419;SDS011;29017;51.514;-0.178;2023-06-14T12:03:23;4.78;;;2.65;;
43419;SDS011;29017;51.514;-0.178;2023-06-14T12:06:04;5.45;;;2.55;;
43419;SDS011;29017;51.514;-0.178;2023-06-14T12:08:35;7.10;;;3.22;;
43419;SDS011;29017;51.514;-0.178;2023-06-14T12:11:10;10.13;;;3.47;;
43419;SDS011;29017;51.514;-0.178;2023-06-14T12:13:41;13.43;;;3.63;;
43419;SDS011;29017;51.514;-0.178;2023-06-14T12:16:09;9.50;;;3.08;;
43419;SDS011;29017;51.514;-0.178;2023-06-14T12:18:39;7.05;;;3.50;;
43419;SDS011;29017;51.514;-0.178;2023-06-14T12:21:08;11.90;;;5.20;;
43419;SDS011;29017;51.514;-0.178;2023-06-14T12:23:48;5.40;;;2.65;;
43419;SDS011;29017;51.514;-0.178;2023-06-14T12:26:16;12.82;;;3.30;;
43419;SDS011;29017;51.514;-0.178;2023-06-14T12:28:45;9.10;;;3.20;;
43419;SDS011;29017;51.514;-0.178;2023-06-14T12:31:14;10.68;;;3.17;;
43419;SDS011;29017;51.514;-0.178;2023-06-14T12:33:43;10.02;;;3.28;;
43419;SDS011;29017;51.514;-0.178;2023-06-14T12:36:13;8.82;;;3.25;;
43419;SDS011;29017;51.514;-0.178;2023-06-14T12:38:40;12.80;;;3.42;;
43419;SDS011;29017;51.514;-0.178;2023-06-14T12:41:08;8.10;;;3.17;;
43419;SDS011;29017;51.514;-0.178;2023-06-14T12:43:35;5.50;;;2.90;;
43419;SDS011;29017;51.514;-0.178;2023-06-14T12:46:02;6.93;;;3.35;;
43419;SDS011;29017;51.514;-0.178;2023-06-14T12:48:29;10.10;;;3.38;;
43419;SDS011;29017;51.514;-0.178;2023-06-14T12:50:57;4.03;;;2.05;;
43419;SDS011;29017;51.514;-0.178;2023-06-14T12:53:25;6.32;;;2.70;;
43419;SDS011;29017;51.514;-0.178;2023-06-14T12:55:52;5.13;;;2.70;;
43419;SDS011;29017;51.514;-0.178;2023-06-14T12:58:19;6.72;;;2.97;;
43419;SDS011;29017;51.514;-0.178;2023-06-14T13:00:46;10.23;;;2.70;;
43419;SDS011;29017;51.514;-0.178;2023-06-14T13:03:14;6.20;;;2.70;;
43419;SDS011;29017;51.514;-0.178;2023-06-14T13:05:42;7.00;;;3.25;;
43419;SDS011;29017;51.514;-0.178;2023-06-14T13:08:10;8.63;;;3.05;;
43419;SDS011;29017;51.514;-0.178;2023-06-14T13:10:37;7.03;;;2.65;;
43419;SDS011;29017;51.514;-0.178;2023-06-14T13:13:04;5.10;;;2.53;;
43419;SDS011;29017;51.514;-0.178;2023-06-14T13:15:33;7.50;;;2.80;;
43419;SDS011;29017;51.514;-0.178;2023-06-14T13:18:16;10.77;;;3.80;;
43419;SDS011;29017;51.514;-0.178;2023-06-14T13:20:43;8.90;;;2.72;;
43419;SDS011;29017;51.514;-0.178;2023-06-14T13:23:11;7.45;;;3.22;;
43419;SDS011;29017;51.514;-0.178;2023-06-14T13:25:41;7.28;;;2.90;;
43419;SDS011;29017;51.514;-0.178;2023-06-14T13:28:08;8.20;;;3.60;;
43419;SDS011;29017;51.514;-0.178;2023-06-14T13:30:35;6.03;;;2.95;;
43419;SDS011;29017;51.514;-0.178;2023-06-14T13:33:02;7.88;;;3.35;;
43419;SDS011;29017;51.514;-0.178;2023-06-14T13:35:30;5.63;;;2.63;;
43419;SDS011;29017;51.514;-0.178;2023-06-14T13:38:09;9.15;;;2.70;;
43419;SDS011;29017;51.514;-0.178;2023-06-14T13:40:38;8.27;;;2.65;;
43419;SDS011;29017;51.514;-0.178;2023-06-14T13:43:05;13.57;;;3.42;;
43419;SDS011;29017;51.514;-0.178;2023-06-14T13:45:35;7.82;;;3.08;;
43419;SDS011;29017;51.514;-0.178;2023-06-14T13:48:06;7.38;;;2.53;;
43419;SDS011;29017;51.514;-0.178;2023-06-14T13:50:33;7.57;;;3.35;;
43419;SDS011;29017;51.514;-0.178;2023-06-14T13:53:00;13.05;;;3.88;;
43419;SDS011;29017;51.514;-0.178;2023-06-14T13:55:27;6.03;;;2.08;;
43419;SDS011;29017;51.514;-0.178;2023-06-14T13:57:54;8.13;;;2.63;;
43419;SDS011;29017;51.514;-0.178;2023-06-14T14:00:21;10.38;;;2.90;;
43419;SDS011;29017;51.514;-0.178;2023-06-14T14:02:49;6.25;;;2.58;;
43419;SDS011;29017;51.514;-0.178;2023-06-14T14:05:17;6.53;;;2.92;;
43419;SDS011;29017;51.514;-0.178;2023-06-14T14:07:44;9.70;;;3.70;;
43419;SDS011;29017;51.514;-0.178;2023-06-14T14:10:11;7.28;;;2.67;;
43419;SDS011;29017;51.514;-0.178;2023-06-14T14:12:40;9.63;;;3.25;;
43419;SDS011;29017;51.514;-0.178;2023-06-14T14:15:07;8.38;;;3.00;;
43419;SDS011;29017;51.514;-0.178;2023-06-14T14:17:39;6.43;;;2.85;;
43419;SDS011;29017;51.514;-0.178;2023-06-14T14:20:07;6.30;;;3.25;;
43419;SDS011;29017;51.514;-0.178;2023-06-14T14:22:35;8.43;;;2.83;;
43419;SDS011;29017;51.514;-0.178;2023-06-14T14:25:02;7.68;;;2.47;;
43419;SDS011;29017;51.514;-0.178;2023-06-14T14:27:29;4.03;;;2.72;;
43419;SDS011;29017;51.514;-0.178;2023-06-14T14:29:56;4.93;;;2.58;;
43419;SDS011;29017;51.514;-0.178;2023-06-14T14:32:23;7.93;;;2.85;;
43419;SDS011;29017;51.514;-0.178;2023-06-14T14:34:50;8.38;;;3.50;;
43419;SDS011;29017;51.514;-0.178;2023-06-14T14:37:17;7.25;;;2.95;;
43419;SDS011;29017;51.514;-0.178;2023-06-14T14:39:44;7.80;;;2.88;;
43419;SDS011;29017;51.514;-0.178;2023-06-14T14:42:12;6.95;;;2.90;;
43419;SDS011;29017;51.514;-0.178;2023-06-14T14:44:39;5.90;;;3.60;;
43419;SDS011;29017;51.514;-0.178;2023-06-14T14:47:06;5.07;;;2.80;;
43419;SDS011;29017;51.514;-0.178;2023-06-14T14:49:33;9.02;;;3.92;;
43419;SDS011;29017;51.514;-0.178;2023-06-14T14:52:00;6.60;;;2.67;;
43419;SDS011;29017;51.514;-0.178;2023-06-14T14:54:40;8.02;;;3.00;;
43419;SDS011;29017;51.514;-0.178;2023-06-14T14:57:07;8.15;;;3.50;;
43419;SDS011;29017;51.514;-0.178;2023-06-14T14:59:34;13.88;;;8.00;;